createdAt,value
2019-03-27T00:00:06.030Z,99.99
2019-03-27T00:01:06.082Z,99.99
2019-03-27T00:02:06.138Z,99.99
2019-03-27T00:03:06.198Z,99.99
2019-03-27T00:04:06.258Z,99.99
2019-03-27T00:05:06.330Z,99.99
2019-03-27T00:06:06.382Z,99.99
2019-03-27T00:07:06.446Z,99.99
2019-03-27T00:08:06.506Z,99.99
2019-03-27T00:09:06.566Z,99.99
2019-03-27T00:10:06.634Z,99.99
2019-03-27T00:11:06.694Z,99.99
2019-03-27T00:12:06.747Z,99.99
2019-03-27T00:13:06.811Z,99.99
2019-03-27T00:14:06.876Z,99.99
2019-03-27T00:15:12.666Z,99.99
2019-03-27T00:16:06.999Z,99.99
2019-03-27T00:17:07.057Z,99.99
2019-03-27T00:18:07.117Z,99.99
2019-03-27T00:19:07.179Z,99.99
2019-03-27T00:20:07.343Z,99.99
2019-03-27T00:21:07.301Z,99.99
2019-03-27T00:22:07.359Z,99.99
2019-03-27T00:23:07.423Z,99.99
2019-03-27T00:24:07.483Z,99.99
2019-03-27T00:25:07.551Z,99.99
2019-03-27T00:26:07.611Z,99.99
2019-03-27T00:27:07.668Z,99.99
2019-03-27T00:28:07.727Z,99.99
2019-03-27T00:29:07.794Z,99.99
2019-03-27T00:30:07.856Z,99.99
2019-03-27T00:31:07.920Z,99.99
2019-03-27T00:32:07.975Z,99.99
2019-03-27T00:33:08.033Z,99.99
2019-03-27T00:34:08.093Z,99.99
2019-03-27T00:35:08.188Z,99.99
2019-03-27T00:36:08.215Z,99.99
2019-03-27T00:37:08.276Z,99.99
2019-03-27T00:38:08.336Z,99.99
2019-03-27T00:39:08.403Z,99.99
2019-03-27T00:40:08.465Z,99.99
2019-03-27T00:41:08.528Z,99.99
2019-03-27T00:42:08.581Z,99.99
2019-03-27T00:43:08.644Z,99.99
2019-03-27T00:44:08.709Z,99.99
2019-03-27T00:45:08.786Z,99.99
2019-03-27T00:46:08.835Z,99.99
2019-03-27T00:47:08.885Z,99.99
2019-03-27T00:48:08.949Z,99.99
2019-03-27T00:49:09.008Z,99.99
2019-03-27T00:50:09.161Z,99.99
2019-03-27T00:51:09.142Z,99.99
2019-03-27T00:52:09.192Z,99.99
2019-03-27T00:53:09.253Z,99.99
2019-03-27T00:54:09.313Z,99.99
2019-03-27T00:55:09.401Z,99.99
2019-03-27T00:56:09.449Z,99.99
2019-03-27T00:57:09.497Z,99.99
2019-03-27T00:58:09.557Z,99.99
2019-03-27T00:59:09.617Z,99.99
2019-03-27T01:00:09.687Z,99.99
2019-03-27T01:01:09.753Z,99.99
2019-03-27T01:02:09.805Z,99.99
2019-03-27T01:03:09.866Z,99.99
2019-03-27T01:04:09.921Z,99.99
2019-03-27T01:05:09.990Z,99.99
2019-03-27T01:06:10.062Z,99.99
2019-03-27T01:07:10.113Z,99.99
2019-03-27T01:08:10.168Z,99.99
2019-03-27T01:09:10.229Z,99.99
2019-03-27T01:10:10.303Z,99.99
2019-03-27T01:11:10.695Z,99.99
2019-03-27T01:12:10.410Z,99.99
2019-03-27T01:13:10.473Z,99.99
2019-03-27T01:14:10.534Z,99.99
2019-03-27T01:15:10.611Z,99.99
2019-03-27T01:16:10.655Z,99.99
2019-03-27T01:17:10.747Z,99.99
2019-03-27T01:18:10.778Z,99.99
2019-03-27T01:19:10.842Z,99.99
2019-03-27T01:20:10.903Z,99.99
2019-03-27T01:21:10.958Z,99.99
2019-03-27T01:22:11.026Z,99.99
2019-03-27T01:23:11.099Z,99.99
2019-03-27T01:24:11.142Z,99.99
2019-03-27T01:25:11.202Z,99.99
2019-03-27T01:26:11.267Z,99.99
2019-03-27T01:27:11.423Z,99.99
2019-03-27T01:28:11.386Z,99.99
2019-03-27T01:29:11.450Z,99.99
2019-03-27T01:30:11.512Z,99.99
2019-03-27T01:31:11.571Z,99.99
2019-03-27T01:32:11.639Z,99.99
2019-03-27T01:33:11.701Z,99.99
2019-03-27T01:34:11.759Z,99.99
2019-03-27T01:35:11.819Z,99.99
2019-03-27T01:36:11.876Z,99.99
2019-03-27T01:37:11.945Z,99.99
2019-03-27T01:38:12.006Z,99.99
2019-03-27T01:39:12.066Z,99.99
2019-03-27T01:40:12.121Z,99.99
2019-03-27T01:41:12.179Z,99.99
2019-03-27T01:42:12.331Z,99.99
2019-03-27T01:43:12.303Z,99.99
2019-03-27T01:44:12.363Z,99.99
2019-03-27T01:45:12.427Z,99.99
2019-03-27T01:46:12.485Z,99.99
2019-03-27T01:47:12.552Z,99.99
2019-03-27T01:48:12.612Z,99.99
2019-03-27T01:49:12.669Z,99.99
2019-03-27T01:50:12.728Z,99.99
2019-03-27T01:51:12.787Z,99.99
2019-03-27T01:52:12.863Z,99.99
2019-03-27T01:53:12.915Z,99.99
2019-03-27T01:54:12.971Z,99.99
2019-03-27T01:55:13.027Z,99.99
2019-03-27T01:56:13.098Z,99.99
2019-03-27T01:57:13.195Z,99.99
2019-03-27T01:58:13.212Z,99.99
2019-03-27T01:59:13.276Z,99.99
2019-03-27T02:00:13.334Z,99.99
2019-03-27T02:01:13.396Z,99.99
2019-03-27T02:02:13.464Z,99.99
2019-03-27T02:03:13.527Z,99.99
2019-03-27T02:04:13.580Z,99.99
2019-03-27T02:05:13.644Z,99.99
2019-03-27T02:06:13.700Z,99.99
2019-03-27T02:07:13.770Z,99.99
2019-03-27T02:08:13.831Z,99.99
2019-03-27T02:09:13.884Z,99.99
2019-03-27T02:10:13.945Z,99.99
2019-03-27T02:11:14.004Z,99.99
2019-03-27T02:12:14.073Z,99.99
2019-03-27T02:13:14.132Z,99.99
2019-03-27T02:14:14.188Z,99.99
2019-03-27T02:15:14.249Z,99.99
2019-03-27T02:16:14.309Z,99.99
2019-03-27T02:17:14.377Z,99.99
2019-03-27T02:18:14.438Z,99.99
2019-03-27T02:19:14.493Z,99.99
2019-03-27T02:20:14.554Z,99.99
2019-03-27T02:21:14.613Z,99.99
2019-03-27T02:22:14.689Z,99.99
2019-03-27T02:23:14.741Z,99.99
2019-03-27T02:24:14.798Z,99.99
2019-03-27T02:25:14.857Z,99.99
2019-03-27T02:26:14.917Z,99.99
2019-03-27T02:27:14.986Z,99.99
2019-03-27T02:28:15.046Z,99.99
2019-03-27T02:29:15.102Z,99.99
2019-03-27T02:30:15.179Z,99.99
2019-03-27T02:31:15.222Z,99.99
2019-03-27T02:32:15.328Z,99.99
2019-03-27T02:33:15.342Z,99.99
2019-03-27T02:34:15.410Z,99.99
2019-03-27T02:35:15.465Z,99.99
2019-03-27T02:36:15.526Z,99.99
2019-03-27T02:37:15.596Z,99.99
2019-03-27T02:38:15.658Z,99.99
2019-03-27T02:39:15.716Z,99.99
2019-03-27T02:40:15.774Z,99.99
2019-03-27T02:41:15.831Z,99.99
2019-03-27T02:42:15.898Z,99.99
2019-03-27T02:43:15.960Z,99.99
2019-03-27T02:44:16.011Z,99.99
2019-03-27T02:45:16.072Z,99.99
2019-03-27T02:46:24.706Z,99.99
2019-03-27T02:47:16.286Z,99.99
2019-03-27T02:48:16.254Z,99.99
2019-03-27T02:49:16.316Z,99.99
2019-03-27T02:50:16.380Z,99.99
2019-03-27T02:51:16.435Z,99.99
2019-03-27T02:52:16.518Z,99.99
2019-03-27T02:53:16.562Z,99.99
2019-03-27T02:54:16.618Z,99.99
2019-03-27T02:55:16.679Z,99.99
2019-03-27T02:56:16.742Z,99.99
2019-03-27T02:57:16.812Z,99.99
2019-03-27T02:58:16.867Z,99.99
2019-03-27T02:59:16.920Z,99.99
2019-03-27T03:00:16.980Z,99.99
2019-03-27T03:01:17.046Z,99.99
2019-03-27T03:02:17.568Z,99.99
2019-03-27T03:03:17.164Z,99.99
2019-03-27T03:04:17.224Z,99.99
2019-03-27T03:05:17.283Z,99.99
2019-03-27T03:06:17.347Z,99.99
2019-03-27T03:07:17.404Z,99.99
2019-03-27T03:08:17.485Z,99.99
2019-03-27T03:09:17.526Z,99.99
2019-03-27T03:10:17.724Z,99.99
2019-03-27T03:11:17.643Z,99.99
2019-03-27T03:12:17.717Z,99.99
2019-03-27T03:13:17.776Z,99.99
2019-03-27T03:14:17.857Z,99.99
2019-03-27T03:15:17.888Z,99.99
2019-03-27T03:16:17.949Z,99.99
2019-03-27T03:17:18.008Z,99.99
2019-03-27T03:18:18.173Z,99.99
2019-03-27T03:19:18.141Z,99.99
2019-03-27T03:20:18.188Z,99.99
2019-03-27T03:21:18.253Z,99.99
2019-03-27T03:22:18.315Z,99.99
2019-03-27T03:23:18.394Z,99.99
2019-03-27T03:24:18.438Z,99.99
2019-03-27T03:25:18.507Z,99.99
2019-03-27T03:26:18.549Z,99.99
2019-03-27T03:27:18.609Z,99.99
2019-03-27T03:28:18.760Z,99.99
2019-03-27T03:29:18.752Z,99.99
2019-03-27T03:30:18.796Z,99.99
2019-03-27T03:31:18.870Z,99.99
2019-03-27T03:32:18.912Z,99.99
2019-03-27T03:33:18.977Z,99.99
2019-03-27T03:34:19.034Z,99.99
2019-03-27T03:35:19.093Z,99.99
2019-03-27T03:36:19.149Z,99.99
2019-03-27T03:37:19.216Z,99.99
2019-03-27T03:38:19.271Z,99.99
2019-03-27T03:39:19.675Z,99.99
2019-03-27T03:40:19.389Z,99.99
2019-03-27T03:41:19.450Z,99.99
2019-03-27T03:42:19.510Z,99.99
2019-03-27T03:43:19.571Z,99.99
2019-03-27T03:44:19.638Z,99.99
2019-03-27T03:45:19.754Z,99.99
2019-03-27T03:46:19.774Z,99.99
2019-03-27T03:47:19.811Z,99.99
2019-03-27T03:48:19.871Z,99.99
2019-03-27T03:49:19.944Z,99.99
2019-03-27T03:50:19.998Z,99.99
2019-03-27T03:51:20.054Z,99.99
2019-03-27T03:52:20.110Z,99.99
2019-03-27T03:53:20.175Z,99.99
2019-03-27T03:54:20.236Z,99.99
2019-03-27T03:55:20.305Z,99.99
2019-03-27T03:56:20.355Z,99.99
2019-03-27T03:57:20.471Z,99.99
2019-03-27T03:58:20.471Z,99.99
2019-03-27T03:59:20.606Z,99.99
2019-03-27T04:00:20.610Z,99.99
2019-03-27T04:01:20.654Z,99.99
2019-03-27T04:02:20.706Z,99.99
2019-03-27T04:03:20.770Z,99.99
2019-03-27T04:04:20.830Z,99.99
2019-03-27T04:05:20.902Z,99.99
2019-03-27T04:06:20.956Z,99.99
2019-03-27T04:07:21.023Z,99.99
2019-03-27T04:08:21.071Z,99.99
2019-03-27T04:09:21.144Z,99.99
2019-03-27T04:10:21.192Z,99.99
2019-03-27T04:11:21.269Z,99.99
2019-03-27T04:12:21.312Z,99.99
2019-03-27T04:13:21.371Z,99.99
2019-03-27T04:14:21.431Z,99.99
2019-03-27T04:15:21.499Z,99.99
2019-03-27T04:16:21.556Z,99.99
2019-03-27T04:17:21.616Z,99.99
2019-03-27T04:18:21.677Z,99.99
2019-03-27T04:19:21.727Z,99.99
2019-03-27T04:20:21.796Z,99.99
2019-03-27T04:21:21.858Z,99.99
2019-03-27T04:22:21.929Z,99.99
2019-03-27T04:23:21.977Z,99.99
2019-03-27T04:24:22.028Z,99.99
2019-03-27T04:25:22.089Z,99.99
2019-03-27T04:26:22.241Z,99.99
2019-03-27T04:27:22.214Z,99.99
2019-03-27T04:28:22.298Z,99.99
2019-03-27T04:29:22.327Z,99.99
2019-03-27T04:30:22.410Z,99.99
2019-03-27T04:31:22.458Z,99.99
2019-03-27T04:32:22.529Z,99.99
2019-03-27T04:33:22.573Z,99.99
2019-03-27T04:34:22.628Z,99.99
2019-03-27T04:35:22.694Z,99.99
2019-03-27T04:36:22.755Z,99.99
2019-03-27T04:37:22.823Z,99.99
2019-03-27T04:38:22.873Z,99.99
2019-03-27T04:39:22.929Z,99.99
2019-03-27T04:40:22.988Z,99.99
2019-03-27T04:41:23.056Z,99.99
2019-03-27T04:42:23.117Z,99.99
2019-03-27T04:43:23.180Z,99.99
2019-03-27T04:44:23.228Z,99.99
2019-03-27T04:45:23.291Z,99.99
2019-03-27T04:46:23.357Z,99.99
2019-03-27T04:47:31.927Z,99.99
2019-03-27T04:48:23.469Z,99.99
2019-03-27T04:49:23.529Z,99.99
2019-03-27T04:50:23.589Z,99.99
2019-03-27T04:51:23.658Z,99.99
2019-03-27T04:52:23.716Z,99.99
2019-03-27T04:53:23.771Z,99.99
2019-03-27T04:54:26.899Z,99.99
2019-03-27T04:55:23.889Z,99.99
2019-03-27T04:56:23.958Z,99.99
2019-03-27T04:57:24.017Z,99.99
2019-03-27T04:58:24.069Z,99.99
2019-03-27T04:59:24.129Z,99.99
2019-03-27T05:00:24.190Z,99.99
2019-03-27T05:01:24.274Z,99.99
2019-03-27T05:02:24.311Z,99.99
2019-03-27T05:03:24.370Z,99.99
2019-03-27T05:04:24.430Z,99.99
2019-03-27T05:05:24.492Z,99.99
2019-03-27T05:06:24.558Z,99.99
2019-03-27T05:07:24.618Z,99.99
2019-03-27T05:08:24.674Z,99.99
2019-03-27T05:09:24.732Z,99.99
2019-03-27T05:10:24.790Z,99.99
2019-03-27T05:11:24.863Z,99.99
2019-03-27T05:12:24.920Z,99.99
2019-03-27T05:13:24.970Z,99.99
2019-03-27T05:14:25.034Z,99.99
2019-03-27T05:15:25.097Z,99.99
2019-03-27T05:16:25.490Z,99.99
2019-03-27T05:17:25.214Z,99.99
2019-03-27T05:18:25.274Z,99.99
2019-03-27T05:19:25.334Z,99.99
2019-03-27T05:20:28.601Z,99.99
2019-03-27T05:21:25.451Z,99.99
2019-03-27T05:22:25.619Z,99.99
2019-03-27T05:23:25.574Z,99.99
2019-03-27T05:24:25.635Z,99.99
2019-03-27T05:25:25.703Z,99.99
2019-03-27T05:26:25.767Z,99.99
2019-03-27T05:27:25.826Z,99.99
2019-03-27T05:28:25.879Z,99.99
2019-03-27T05:29:25.935Z,99.99
2019-03-27T05:30:25.997Z,99.99
2019-03-27T05:31:26.058Z,99.99
2019-03-27T05:32:26.138Z,99.99
2019-03-27T05:33:26.176Z,99.99
2019-03-27T05:34:26.235Z,99.99
2019-03-27T05:35:26.296Z,99.99
2019-03-27T05:36:26.359Z,99.99
2019-03-27T05:37:26.434Z,99.99
2019-03-27T05:38:26.487Z,99.99
2019-03-27T05:39:26.536Z,99.99
2019-03-27T05:40:26.595Z,99.99
2019-03-27T05:41:26.652Z,99.99
2019-03-27T05:42:26.723Z,99.99
2019-03-27T05:43:26.784Z,99.99
2019-03-27T05:44:26.836Z,99.99
2019-03-27T05:45:26.896Z,99.99
2019-03-27T05:46:26.959Z,99.99
2019-03-27T05:47:27.024Z,99.99
2019-03-27T05:48:27.088Z,99.99
2019-03-27T05:49:27.140Z,99.99
2019-03-27T05:50:27.196Z,99.99
2019-03-27T05:51:27.260Z,99.99
2019-03-27T05:52:27.324Z,99.99
2019-03-27T05:53:27.384Z,99.99
2019-03-27T05:54:27.436Z,99.99
2019-03-27T05:55:27.502Z,99.99
2019-03-27T05:56:27.557Z,99.99
2019-03-27T05:57:27.625Z,99.99
2019-03-27T05:58:27.685Z,99.99
2019-03-27T05:59:27.740Z,99.99
2019-03-27T06:00:27.798Z,99.99
2019-03-27T06:01:27.876Z,99.99
2019-03-27T06:02:27.925Z,99.99
2019-03-27T06:03:27.989Z,99.99
2019-03-27T06:04:28.037Z,99.99
2019-03-27T06:05:28.101Z,99.99
2019-03-27T06:06:28.164Z,99.99
2019-03-27T06:07:28.554Z,99.99
2019-03-27T06:08:28.287Z,99.99
2019-03-27T06:09:28.342Z,99.99
2019-03-27T06:10:28.401Z,99.99
2019-03-27T06:11:28.463Z,99.99
2019-03-27T06:12:28.522Z,99.99
2019-03-27T06:13:28.602Z,99.99
2019-03-27T06:14:28.641Z,99.99
2019-03-27T06:15:28.702Z,99.99
2019-03-27T06:16:28.761Z,99.99
2019-03-27T06:17:28.831Z,99.99
2019-03-27T06:18:28.893Z,99.99
2019-03-27T06:19:28.950Z,99.99
2019-03-27T06:20:29.011Z,99.99
2019-03-27T06:21:29.068Z,99.99
2019-03-27T06:22:29.126Z,99.99
2019-03-27T06:23:29.294Z,99.99
2019-03-27T06:24:29.249Z,99.99
2019-03-27T06:25:29.319Z,99.99
2019-03-27T06:26:29.399Z,99.99
2019-03-27T06:27:29.430Z,99.99
2019-03-27T06:28:29.502Z,99.99
2019-03-27T06:29:29.558Z,99.99
2019-03-27T06:30:29.611Z,99.99
2019-03-27T06:31:29.678Z,99.99
2019-03-27T06:32:29.734Z,99.99
2019-03-27T06:33:29.803Z,99.99
2019-03-27T06:34:29.868Z,99.99
2019-03-27T06:35:29.924Z,99.99
2019-03-27T06:36:29.979Z,99.99
2019-03-27T06:37:30.043Z,99.99
2019-03-27T06:38:30.099Z,99.99
2019-03-27T06:39:30.207Z,99.99
2019-03-27T06:40:30.222Z,99.99
2019-03-27T06:41:30.283Z,99.99
2019-03-27T06:42:30.343Z,99.99
2019-03-27T06:43:30.405Z,99.99
2019-03-27T06:44:30.474Z,99.99
2019-03-27T06:45:30.532Z,99.99
2019-03-27T06:46:30.587Z,99.99
2019-03-27T06:47:30.648Z,99.99
2019-03-27T06:48:30.708Z,99.99
2019-03-27T06:49:30.780Z,99.99
2019-03-27T06:50:30.886Z,99.99
2019-03-27T06:51:39.989Z,99.99
2019-03-27T06:52:30.957Z,99.99
2019-03-27T06:53:31.012Z,99.99
2019-03-27T06:54:31.172Z,99.99
2019-03-27T06:55:31.139Z,99.99
2019-03-27T06:56:31.196Z,99.99
2019-03-27T06:57:31.261Z,99.99
2019-03-27T06:58:31.320Z,99.99
2019-03-27T06:59:31.388Z,99.99
2019-03-27T07:00:31.448Z,99.99
2019-03-27T07:01:31.505Z,99.99
2019-03-27T07:02:31.564Z,99.99
2019-03-27T07:03:31.631Z,99.99
2019-03-27T07:04:31.772Z,99.99
2019-03-27T07:05:31.761Z,99.99
2019-03-27T07:06:31.813Z,99.99
2019-03-27T07:07:31.878Z,99.99
2019-03-27T07:08:31.937Z,99.99
2019-03-27T07:09:32.004Z,99.99
2019-03-27T07:10:32.065Z,99.99
2019-03-27T07:11:32.121Z,99.99
2019-03-27T07:12:32.181Z,99.99
2019-03-27T07:13:32.245Z,99.99
2019-03-27T07:14:32.308Z,99.99
2019-03-27T07:15:35.561Z,99.99
2019-03-27T07:16:32.429Z,99.99
2019-03-27T07:17:32.497Z,99.99
2019-03-27T07:18:40.168Z,99.99
2019-03-27T07:19:32.623Z,99.99
2019-03-27T07:20:32.693Z,99.99
2019-03-27T07:21:32.748Z,99.99
2019-03-27T07:22:32.802Z,99.99
2019-03-27T07:23:32.866Z,99.99
2019-03-27T07:24:32.923Z,99.99
2019-03-27T07:25:32.990Z,99.99
2019-03-27T07:26:33.054Z,99.99
2019-03-27T07:27:33.109Z,99.99
2019-03-27T07:28:33.175Z,99.99
2019-03-27T07:29:33.234Z,99.99
2019-03-27T07:30:33.405Z,99.99
2019-03-27T07:31:33.354Z,99.99
2019-03-27T07:32:33.422Z,99.99
2019-03-27T07:33:33.480Z,99.99
2019-03-27T07:34:33.538Z,99.99
2019-03-27T07:35:33.616Z,99.99
2019-03-27T07:36:33.671Z,99.99
2019-03-27T07:37:33.726Z,99.99
2019-03-27T07:38:33.786Z,99.99
2019-03-27T07:39:33.851Z,99.99
2019-03-27T07:40:33.922Z,99.99
2019-03-27T07:41:33.978Z,99.99
2019-03-27T07:42:34.035Z,99.99
2019-03-27T07:43:34.095Z,99.99
2019-03-27T07:44:34.160Z,99.99
2019-03-27T07:45:34.367Z,99.99
2019-03-27T07:46:34.283Z,99.99
2019-03-27T07:47:34.344Z,99.99
2019-03-27T07:48:34.404Z,99.99
2019-03-27T07:49:34.467Z,99.99
2019-03-27T07:50:34.539Z,99.99
2019-03-27T07:51:34.609Z,99.99
2019-03-27T07:52:34.651Z,99.99
2019-03-27T07:53:34.724Z,99.99
2019-03-27T07:54:34.783Z,99.99
2019-03-27T07:55:34.847Z,99.99
2019-03-27T07:56:34.916Z,99.99
2019-03-27T07:57:34.963Z,99.99
2019-03-27T07:58:35.032Z,99.99
2019-03-27T07:59:35.090Z,99.99
2019-03-27T08:00:35.291Z,99.99
2019-03-27T08:01:35.212Z,99.99
2019-03-27T08:02:35.285Z,99.99
2019-03-27T08:03:35.340Z,99.99
2019-03-27T08:04:35.404Z,99.47
2019-03-27T08:05:35.477Z,96.22
2019-03-27T08:06:35.540Z,94.65
2019-03-27T08:07:35.598Z,91.16
2019-03-27T08:08:35.661Z,88.48
2019-03-27T08:09:35.724Z,87.82
2019-03-27T08:10:35.800Z,87.34
2019-03-27T08:11:35.904Z,87.29
2019-03-27T08:12:35.920Z,86.52
2019-03-27T08:13:35.984Z,85.41
2019-03-27T08:14:36.061Z,84.65
2019-03-27T08:15:36.137Z,83.06
2019-03-27T08:16:36.200Z,84.02
2019-03-27T08:17:36.248Z,79.72
2019-03-27T08:18:36.319Z,79.81
2019-03-27T08:19:36.384Z,79.14
2019-03-27T08:20:36.457Z,79.47
2019-03-27T08:21:36.524Z,77.26
2019-03-27T08:22:36.585Z,76.25
2019-03-27T08:23:36.653Z,77.31
2019-03-27T08:24:36.724Z,75.96
2019-03-27T08:25:36.797Z,74.82
2019-03-27T08:26:36.866Z,74.52
2019-03-27T08:27:36.925Z,74.49
2019-03-27T08:28:37.006Z,76.73
2019-03-27T08:29:37.062Z,77.59
2019-03-27T08:30:37.133Z,78.02
2019-03-27T08:31:37.211Z,75.39
2019-03-27T08:32:37.652Z,75.83
2019-03-27T08:33:37.334Z,75.60
2019-03-27T08:34:37.401Z,74.90
2019-03-27T08:35:37.470Z,75.37
2019-03-27T08:36:37.545Z,75.85
2019-03-27T08:37:37.618Z,75.95
2019-03-27T08:38:37.678Z,75.56
2019-03-27T08:39:37.742Z,77.63
2019-03-27T08:40:37.806Z,78.30
2019-03-27T08:41:37.886Z,78.64
2019-03-27T08:42:37.951Z,78.99
2019-03-27T08:43:38.011Z,80.22
2019-03-27T08:44:38.078Z,81.90
2019-03-27T08:45:38.146Z,83.14
2019-03-27T08:46:38.256Z,84.16
2019-03-27T08:47:38.299Z,85.25
2019-03-27T08:48:39.341Z,85.73
2019-03-27T08:49:38.416Z,85.64
2019-03-27T08:50:38.478Z,86.30
2019-03-27T08:51:38.550Z,88.17
2019-03-27T08:52:38.622Z,88.45
2019-03-27T08:53:38.678Z,88.93
2019-03-27T08:54:38.745Z,88.55
2019-03-27T08:55:38.820Z,88.84
2019-03-27T08:56:38.882Z,89.40
2019-03-27T08:57:38.946Z,89.17
2019-03-27T08:58:39.008Z,89.36
2019-03-27T08:59:39.067Z,90.12
2019-03-27T09:00:39.133Z,90.50
2019-03-27T09:01:39.199Z,90.79
2019-03-27T09:02:39.603Z,90.36
2019-03-27T09:03:39.327Z,88.93
2019-03-27T09:04:39.391Z,89.03
2019-03-27T09:05:39.457Z,89.69
2019-03-27T09:06:39.520Z,88.82
2019-03-27T09:07:39.587Z,85.52
2019-03-27T09:08:39.740Z,82.41
2019-03-27T09:09:39.720Z,79.68
2019-03-27T09:10:39.780Z,78.86
2019-03-27T09:11:39.851Z,77.33
2019-03-27T09:12:39.915Z,76.12
2019-03-27T09:13:39.987Z,74.82
2019-03-27T09:14:40.055Z,72.74
2019-03-27T09:15:40.113Z,69.17
2019-03-27T09:16:40.176Z,68.21
2019-03-27T09:17:40.244Z,68.87
2019-03-27T09:18:40.403Z,67.57
2019-03-27T09:19:40.372Z,66.61
2019-03-27T09:20:40.444Z,66.13
2019-03-27T09:21:40.512Z,65.68
2019-03-27T09:22:40.575Z,66.49
2019-03-27T09:23:40.656Z,66.10
2019-03-27T09:24:40.716Z,64.31
2019-03-27T09:25:40.776Z,63.64
2019-03-27T09:26:40.844Z,62.65
2019-03-27T09:27:40.908Z,63.51
2019-03-27T09:28:41.004Z,64.59
2019-03-27T09:29:41.057Z,63.86
2019-03-27T09:30:41.115Z,64.05
2019-03-27T09:31:45.008Z,62.35
2019-03-27T09:32:41.250Z,63.41
2019-03-27T09:33:41.419Z,60.98
2019-03-27T09:34:41.386Z,60.98
2019-03-27T09:35:41.454Z,62.39
2019-03-27T09:36:41.521Z,62.19
2019-03-27T09:37:41.589Z,62.55
2019-03-27T09:38:41.665Z,62.62
2019-03-27T09:39:41.735Z,63.45
2019-03-27T09:40:41.793Z,64.56
2019-03-27T09:41:41.872Z,66.38
2019-03-27T09:42:41.929Z,67.31
2019-03-27T09:43:42.005Z,67.31
2019-03-27T09:44:42.073Z,67.69
2019-03-27T09:45:42.138Z,67.50
2019-03-27T09:46:42.202Z,66.86
2019-03-27T09:47:42.272Z,65.23
2019-03-27T09:48:42.333Z,66.80
2019-03-27T09:49:49.609Z,64.66
2019-03-27T09:50:42.472Z,66.16
2019-03-27T09:51:42.538Z,66.61
2019-03-27T09:52:42.608Z,68.20
2019-03-27T09:53:42.680Z,67.24
2019-03-27T09:54:42.750Z,68.77
2019-03-27T09:55:42.846Z,70.97
2019-03-27T09:56:42.874Z,71.30
2019-03-27T09:57:42.941Z,69.51
2019-03-27T09:58:43.010Z,68.68
2019-03-27T09:59:43.075Z,66.99
2019-03-27T10:00:43.163Z,64.69
2019-03-27T10:01:43.206Z,64.05
2019-03-27T10:02:43.274Z,64.63
2019-03-27T10:03:43.342Z,64.72
2019-03-27T10:04:43.410Z,63.73
2019-03-27T10:05:43.482Z,62.19
2019-03-27T10:06:43.547Z,58.94
2019-03-27T10:07:43.606Z,60.47
2019-03-27T10:08:43.674Z,60.98
2019-03-27T10:09:43.743Z,61.52
2019-03-27T10:10:43.815Z,60.66
2019-03-27T10:11:43.887Z,59.06
2019-03-27T10:12:43.948Z,58.39
2019-03-27T10:13:44.011Z,57.04
2019-03-27T10:14:47.314Z,56.85
2019-03-27T10:15:44.154Z,56.92
2019-03-27T10:16:44.227Z,56.51
2019-03-27T10:17:44.283Z,57.03
2019-03-27T10:18:47.335Z,60.44
2019-03-27T10:19:44.415Z,62.04
2019-03-27T10:20:44.483Z,63.76
2019-03-27T10:21:44.563Z,63.35
2019-03-27T10:22:44.627Z,63.51
2019-03-27T10:23:44.687Z,64.56
2019-03-27T10:24:44.751Z,66.00
2019-03-27T10:25:44.820Z,66.96
2019-03-27T10:26:44.891Z,66.86
2019-03-27T10:27:44.956Z,66.76
2019-03-27T10:28:45.028Z,66.03
2019-03-27T10:29:45.088Z,65.49
2019-03-27T10:30:45.152Z,63.42
2019-03-27T10:31:45.328Z,62.10
2019-03-27T10:32:45.284Z,60.99
2019-03-27T10:33:45.353Z,60.31
2019-03-27T10:34:45.420Z,59.61
2019-03-27T10:35:45.484Z,60.83
2019-03-27T10:36:45.564Z,62.65
2019-03-27T10:37:45.628Z,63.19
2019-03-27T10:38:45.689Z,63.54
2019-03-27T10:39:45.752Z,64.12
2019-03-27T10:40:45.816Z,64.47
2019-03-27T10:41:45.895Z,64.59
2019-03-27T10:42:45.963Z,64.66
2019-03-27T10:43:46.062Z,66.22
2019-03-27T10:44:46.086Z,64.18
2019-03-27T10:45:46.157Z,63.32
2019-03-27T10:46:46.316Z,63.32
2019-03-27T10:47:46.284Z,63.03
2019-03-27T10:48:52.479Z,62.24
2019-03-27T10:49:46.416Z,63.48
2019-03-27T10:50:46.483Z,64.62
2019-03-27T10:51:46.568Z,65.04
2019-03-27T10:52:46.625Z,65.42
2019-03-27T10:53:46.681Z,62.55
2019-03-27T10:54:46.745Z,63.23
2019-03-27T10:55:46.815Z,61.02
2019-03-27T10:56:46.885Z,61.22
2019-03-27T10:57:46.949Z,60.83
2019-03-27T10:58:47.014Z,62.14
2019-03-27T10:59:47.082Z,61.28
2019-03-27T11:00:47.143Z,61.38
2019-03-27T11:01:47.314Z,61.41
2019-03-27T11:02:47.273Z,62.08
2019-03-27T11:03:47.338Z,61.69
2019-03-27T11:04:47.411Z,60.74
2019-03-27T11:05:47.469Z,60.67
2019-03-27T11:06:47.542Z,61.25
2019-03-27T11:07:47.609Z,60.96
2019-03-27T11:08:47.666Z,60.55
2019-03-27T11:09:47.734Z,62.17
2019-03-27T11:10:47.798Z,61.79
2019-03-27T11:11:47.869Z,61.88
2019-03-27T11:12:47.955Z,63.64
2019-03-27T11:13:47.999Z,62.20
2019-03-27T11:14:48.062Z,61.82
2019-03-27T11:15:48.126Z,61.05
2019-03-27T11:16:48.210Z,61.28
2019-03-27T11:17:48.262Z,61.85
2019-03-27T11:18:48.332Z,62.74
2019-03-27T11:19:48.391Z,61.57
2019-03-27T11:20:48.462Z,62.33
2019-03-27T11:21:48.536Z,60.99
2019-03-27T11:22:48.606Z,60.99
2019-03-27T11:23:48.656Z,60.86
2019-03-27T11:24:48.722Z,61.34
2019-03-27T11:25:48.789Z,62.59
2019-03-27T11:26:48.865Z,61.41
2019-03-27T11:27:48.932Z,63.42
2019-03-27T11:28:48.982Z,64.09
2019-03-27T11:29:49.054Z,65.71
2019-03-27T11:30:49.115Z,64.95
2019-03-27T11:31:49.195Z,63.60
2019-03-27T11:32:49.254Z,63.60
2019-03-27T11:33:49.315Z,65.42
2019-03-27T11:34:49.379Z,64.56
2019-03-27T11:35:51.715Z,64.28
2019-03-27T11:36:49.619Z,64.34
2019-03-27T11:37:49.619Z,65.36
2019-03-27T11:38:49.649Z,66.16
2019-03-27T11:39:49.707Z,66.60
2019-03-27T11:40:49.772Z,67.30
2019-03-27T11:41:49.847Z,67.36
2019-03-27T11:42:49.917Z,68.13
2019-03-27T11:43:55.058Z,67.46
2019-03-27T11:44:50.036Z,68.93
2019-03-27T11:45:50.100Z,68.16
2019-03-27T11:46:50.193Z,67.49
2019-03-27T11:47:50.238Z,67.21
2019-03-27T11:48:50.296Z,66.92
2019-03-27T11:49:50.360Z,65.97
2019-03-27T11:50:50.431Z,65.84
2019-03-27T11:51:50.500Z,66.00
2019-03-27T11:52:50.564Z,67.14
2019-03-27T11:53:50.626Z,68.70
2019-03-27T11:54:50.688Z,68.90
2019-03-27T11:55:50.753Z,68.04
2019-03-27T11:56:50.824Z,67.30
2019-03-27T11:57:50.892Z,67.40
2019-03-27T11:58:50.948Z,68.16
2019-03-27T11:59:54.194Z,68.16
2019-03-27T12:00:54.718Z,66.54
2019-03-27T12:01:51.160Z,65.97
2019-03-27T12:02:51.214Z,67.02
2019-03-27T12:03:51.274Z,67.59
2019-03-27T12:04:51.341Z,66.35
2019-03-27T12:05:51.405Z,65.97
2019-03-27T12:06:51.477Z,65.30
2019-03-27T12:07:51.545Z,65.30
2019-03-27T12:08:51.601Z,64.34
2019-03-27T12:09:51.666Z,65.77
2019-03-27T12:10:51.728Z,66.06
2019-03-27T12:11:51.802Z,65.30
2019-03-27T12:12:51.865Z,65.87
2019-03-27T12:13:51.925Z,64.05
2019-03-27T12:14:51.989Z,65.77
2019-03-27T12:15:52.058Z,66.44
2019-03-27T12:16:52.216Z,66.19
2019-03-27T12:17:52.192Z,67.24
2019-03-27T12:18:52.258Z,66.86
2019-03-27T12:19:52.318Z,64.66
2019-03-27T12:20:59.013Z,65.90
2019-03-27T12:21:54.835Z,66.09
2019-03-27T12:22:57.910Z,65.26
2019-03-27T12:23:52.580Z,64.56
2019-03-27T12:24:52.650Z,63.51
2019-03-27T12:25:55.219Z,64.47
2019-03-27T12:26:52.782Z,64.34
2019-03-27T12:27:52.852Z,64.82
2019-03-27T12:28:52.903Z,66.19
2019-03-27T12:29:52.974Z,66.80
2019-03-27T12:30:53.034Z,64.59
2019-03-27T12:31:53.121Z,62.77
2019-03-27T12:32:53.164Z,62.49
2019-03-27T12:33:53.230Z,64.28
2019-03-27T12:34:53.299Z,63.99
2019-03-27T12:35:53.364Z,64.66
2019-03-27T12:36:53.434Z,64.75
2019-03-27T12:37:53.499Z,63.42
2019-03-27T12:38:53.559Z,64.18
2019-03-27T12:39:53.628Z,64.56
2019-03-27T12:40:53.695Z,64.28
2019-03-27T12:41:53.759Z,64.56
2019-03-27T12:42:53.828Z,65.52
2019-03-27T12:43:53.886Z,64.66
2019-03-27T12:44:53.947Z,64.62
2019-03-27T12:45:54.018Z,64.53
2019-03-27T12:46:54.094Z,64.62
2019-03-27T12:47:54.147Z,64.15
2019-03-27T12:48:54.215Z,64.72
2019-03-27T12:49:54.275Z,64.22
2019-03-27T12:50:54.340Z,66.83
2019-03-27T12:51:54.420Z,65.01
2019-03-27T12:52:54.475Z,65.97